Time;durP1;ratioP1;P1;durP2;ratioP2;P2;SDS_P1;SDS_P2;PMS_P1;PMS_P2;Temp;Humidity;BMP_temperature;BMP_pressure;BME280_temperature;BME280_humidity;BME280_pressure;Samples;Min_cycle;Max_cycle;Signal;HPM_P1;HPM_P2
2022/01/24 00:01:43;;;;;;;;;;;4.40;99.90;;;;;;5027897;28;20134;-67
2022/01/24 00:04:10;;;;;;;;;;;4.40;99.90;;;;;;5019347;28;25092;-67
2022/01/24 00:06:39;;;;;;;11.50;6.63;;;4.40;99.90;;;;;;5032815;28;20358;-66
2022/01/24 00:09:09;;;;;;;9.88;6.35;;;4.40;99.90;;;;;;5031054;28;20077;-67
2022/01/24 00:17:06;;;;;;;9.95;6.20;;;4.40;99.90;;;;;;5031682;28;20729;-67
2022/01/24 00:27:58;;;;;;;8.43;5.72;;;4.40;99.90;;;;;;5031993;28;20284;-67
2022/01/24 00:30:26;;;;;;;10.02;5.65;;;4.40;99.90;;;;;;5031818;28;20504;-67
2022/01/24 00:32:53;;;;;;;7.47;4.80;;;4.40;99.90;;;;;;5040556;28;20168;-67
2022/01/24 00:35:21;;;;;;;8.05;5.30;;;4.30;99.90;;;;;;5031959;28;20052;-67
2022/01/24 00:37:48;;;;;;;8.50;5.55;;;4.40;99.90;;;;;;5039565;28;20055;-67
2022/01/24 00:40:18;;;;;;;9.05;5.97;;;4.40;99.90;;;;;;5031710;28;20132;-66
2022/01/24 00:45:31;;;;;;;10.50;5.53;;;4.30;99.90;;;;;;5031248;28;20072;-67
2022/01/24 00:55:45;;;;;;;10.52;6.40;;;4.40;99.90;;;;;;5031375;28;20055;-65
2022/01/24 00:58:14;;;;;;;8.38;5.57;;;4.40;99.90;;;;;;5031476;28;20049;-67
2022/01/24 01:00:41;;;;;;;8.73;5.35;;;4.50;99.90;;;;;;5031681;28;20037;-67
2022/01/24 01:03:09;;;;;;;11.85;5.43;;;4.50;99.90;;;;;;5031519;28;20041;-66
2022/01/24 01:18:53;;;;;;;6.93;4.80;;;4.50;99.90;;;;;;5031296;28;20261;-67
2022/01/24 01:21:20;;;;;;;;;;;4.50;99.90;;;;;;5032556;28;20076;-67
2022/01/24 01:23:55;;;;;;;9.48;5.95;;;4.40;99.90;;;;;;5031530;28;20057;-67
2022/01/24 01:26:30;;;;;;;11.82;7.43;;;4.40;99.90;;;;;;5031602;28;20041;-67
2022/01/24 01:29:09;;;;;;;12.18;7.03;;;4.30;99.90;;;;;;5031087;28;20465;-67
2022/01/24 01:40:21;;;;;;;;;;;4.20;99.90;;;;;;5030942;28;20045;-67
2022/01/24 01:56:35;;;;;;;13.50;6.70;;;4.20;99.90;;;;;;5079251;28;20044;-67
2022/01/24 01:59:03;;;;;;;10.23;6.35;;;4.20;99.90;;;;;;5056036;28;20339;-67
2022/01/24 02:01:30;;;;;;;10.75;6.80;;;4.20;99.90;;;;;;5049074;28;20075;-67
2022/01/24 02:04:02;;;;;;;10.95;7.18;;;4.10;99.90;;;;;;5061356;28;20060;-67
2022/01/24 02:06:30;;;;;;;;;;;4.10;99.90;;;;;;5066416;28;20050;-67
2022/01/24 02:08:58;;;;;;;;;;;4.10;99.90;;;;;;5055383;28;20054;-66
2022/01/24 02:11:26;;;;;;;11.35;6.40;;;4.10;99.90;;;;;;5066830;28;20519;-67
2022/01/24 02:13:54;;;;;;;10.80;6.65;;;4.10;99.90;;;;;;5058372;28;20460;-67
2022/01/24 02:19:10;;;;;;;11.93;6.20;;;4.10;99.90;;;;;;5066597;28;20188;-67
2022/01/24 02:24:11;;;;;;;10.05;6.32;;;4.10;99.90;;;;;;5065153;28;20015;-66
2022/01/24 02:26:40;;;;;;;9.00;5.60;;;4.10;99.90;;;;;;5055812;28;20045;-67
2022/01/24 02:29:29;;;;;;;8.80;5.70;;;4.20;99.90;;;;;;5039977;28;20052;-67
2022/01/24 02:31:57;;;;;;;9.70;6.07;;;4.20;99.90;;;;;;5028813;28;20045;-67
2022/01/24 02:34:29;;;;;;;;;;;4.20;99.90;;;;;;5033521;28;20076;-67
2022/01/24 02:36:59;;;;;;;;;;;4.20;99.90;;;;;;5042477;28;19925;-66
2022/01/24 02:53:03;;;;;;;9.35;5.00;;;4.20;99.90;;;;;;5034331;28;20595;-67
2022/01/24 02:55:36;;;;;;;6.95;5.00;;;4.20;99.90;;;;;;5033364;28;20056;-66
2022/01/24 02:58:04;;;;;;;7.90;4.53;;;4.20;99.90;;;;;;5035860;28;20102;-67
2022/01/24 03:00:32;;;;;;;7.70;4.67;;;4.20;99.90;;;;;;5042279;28;20049;-66
2022/01/24 03:02:59;;;;;;;;;;;4.20;99.90;;;;;;5039765;28;20114;-67
2022/01/24 03:05:26;;;;;;;;;;;4.20;99.90;;;;;;5019477;28;20066;-67
2022/01/24 03:07:54;;;;;;;;;;;4.10;99.90;;;;;;5036174;28;19925;-67
2022/01/24 03:10:25;;;;;;;;;;;4.20;99.90;;;;;;5038365;28;19925;-67
2022/01/24 03:15:51;;;;;;;8.35;4.82;;;4.20;99.90;;;;;;5029828;28;20492;-67
2022/01/24 03:18:19;;;;;;;9.43;5.75;;;4.20;99.90;;;;;;5017142;28;20041;-67
2022/01/24 03:20:47;;;;;;;6.97;4.50;;;4.20;99.90;;;;;;5028687;28;20053;-67
2022/01/24 03:23:17;;;;;;;7.68;4.68;;;4.20;99.90;;;;;;5026622;28;20051;-67
2022/01/24 03:25:45;;;;;;;6.43;4.45;;;4.20;99.90;;;;;;5031626;28;20160;-67
2022/01/24 03:28:13;;;;;;;7.50;4.53;;;4.10;99.90;;;;;;5042565;28;20044;-67
2022/01/24 03:30:41;;;;;;;8.52;4.72;;;4.10;99.90;;;;;;5043570;28;20041;-67
2022/01/24 03:33:09;;;;;;;8.07;5.35;;;4.20;99.90;;;;;;5043661;28;20055;-67
2022/01/24 03:35:40;;;;;;;8.57;5.68;;;4.10;99.90;;;;;;5044416;28;20491;-67
2022/01/24 03:38:08;;;;;;;7.30;4.97;;;4.10;99.90;;;;;;5038678;28;20037;-66
2022/01/24 03:40:35;;;;;;;9.90;6.30;;;4.20;99.90;;;;;;5027663;28;20049;-66
2022/01/24 03:43:02;;;;;;;9.68;6.03;;;4.20;99.90;;;;;;5039651;28;20471;-66
2022/01/24 03:45:40;;;;;;;13.55;6.15;;;4.20;99.90;;;;;;5032423;28;20141;-67
2022/01/24 03:48:11;;;;;;;9.77;6.25;;;4.20;99.90;;;;;;5015123;28;20404;-67
2022/01/24 03:50:39;;;;;;;8.90;6.35;;;4.20;99.90;;;;;;5025636;28;20054;-67
2022/01/24 03:53:06;;;;;;;10.30;6.05;;;4.20;99.90;;;;;;5027468;28;20053;-66
2022/01/24 03:55:34;;;;;;;8.85;5.85;;;4.20;99.90;;;;;;5033763;28;20411;-67
2022/01/24 03:58:01;;;;;;;11.63;7.28;;;4.20;99.90;;;;;;5034827;28;20050;-67
2022/01/24 04:00:29;;;;;;;10.35;6.40;;;4.20;99.90;;;;;;5038315;28;20041;-66
2022/01/24 04:02:58;;;;;;;8.18;5.50;;;4.20;99.90;;;;;;5028266;28;20151;-67
2022/01/24 04:05:25;;;;;;;11.70;5.45;;;4.20;99.90;;;;;;5029000;28;20044;-67
2022/01/24 04:07:53;;;;;;;9.60;5.88;;;4.20;99.90;;;;;;5010280;28;20484;-67
2022/01/24 04:10:24;;;;;;;8.10;5.47;;;4.20;99.90;;;;;;5027304;28;20789;-67
2022/01/24 04:12:52;;;;;;;9.38;6.10;;;4.20;99.90;;;;;;5022112;28;20148;-66
2022/01/24 04:23:26;;;;;;;9.95;6.65;;;4.10;99.90;;;;;;5019425;28;20053;-67
2022/01/24 04:25:53;;;;;;;10.23;6.72;;;4.10;99.90;;;;;;5031200;28;20037;-67
2022/01/24 04:28:22;;;;;;;9.32;6.18;;;4.10;99.90;;;;;;5032179;28;20116;-67
2022/01/24 04:30:49;;;;;;;11.27;6.20;;;4.10;99.90;;;;;;5031150;28;20065;-67
2022/01/24 04:33:16;;;;;;;10.43;7.00;;;4.10;99.90;;;;;;5031638;28;20058;-67
2022/01/24 04:35:44;;;;;;;12.27;7.30;;;4.10;99.90;;;;;;5044819;28;20045;-67
2022/01/24 04:38:11;;;;;;;10.60;6.45;;;4.10;99.90;;;;;;5049178;28;20067;-66
2022/01/24 04:40:38;;;;;;;11.23;6.63;;;4.10;99.90;;;;;;5051886;28;20097;-66
2022/01/24 04:43:28;;;;;;;9.55;5.90;;;4.10;99.90;;;;;;5049161;28;20056;-66
2022/01/24 04:56:41;;;;;;;9.82;6.78;;;4.10;99.90;;;;;;5045393;28;20049;-68
2022/01/24 04:59:09;;;;;;;11.70;6.13;;;4.10;99.90;;;;;;5031112;28;20075;-67
2022/01/24 05:01:37;;;;;;;8.30;6.05;;;4.10;99.90;;;;;;5024670;28;20041;-66
2022/01/24 05:04:04;;;;;;;9.57;6.45;;;4.10;99.90;;;;;;5032381;28;20178;-66
2022/01/24 05:06:32;;;;;;;13.02;8.10;;;4.10;99.90;;;;;;5033999;28;20046;-66
2022/01/24 05:08:59;;;;;;;12.40;7.20;;;4.10;99.90;;;;;;5031259;28;20045;-66
2022/01/24 05:25:29;;;;;;;10.57;6.82;;;4.20;99.90;;;;;;5022771;28;20080;-67
2022/01/24 05:27:57;;;;;;;9.73;6.57;;;4.10;99.90;;;;;;5029555;28;20096;-67
2022/01/24 05:30:24;;;;;;;10.40;7.28;;;4.10;99.90;;;;;;5029633;28;20057;-67
2022/01/24 05:32:51;;;;;;;16.20;8.80;;;4.10;99.90;;;;;;5032292;28;20411;-67
2022/01/24 05:35:18;;;;;;;11.02;7.18;;;4.20;99.90;;;;;;5034290;28;20041;-67
2022/01/24 05:37:45;;;;;;;8.90;6.55;;;4.20;99.90;;;;;;5034369;28;20048;-67
2022/01/24 05:40:13;;;;;;;11.82;6.57;;;4.20;99.90;;;;;;5026195;28;20045;-67
2022/01/24 05:42:41;;;;;;;9.98;6.82;;;4.20;99.90;;;;;;5040490;28;20045;-67
2022/01/24 05:45:08;;;;;;;9.43;6.78;;;4.20;99.90;;;;;;5038182;28;20045;-68
2022/01/24 05:47:35;;;;;;;8.93;6.63;;;4.20;99.90;;;;;;5030481;28;20420;-66
2022/01/24 05:50:04;;;;;;;9.13;6.30;;;4.20;99.90;;;;;;5030613;28;20446;-67
2022/01/24 05:52:32;;;;;;;9.57;6.13;;;4.20;99.90;;;;;;5030680;28;20042;-67
2022/01/24 05:54:59;;;;;;;9.77;6.75;;;4.30;99.90;;;;;;5035824;28;20029;-66
2022/01/24 05:57:28;;;;;;;9.60;6.63;;;4.20;99.90;;;;;;5026361;28;20455;-66
2022/01/24 05:59:55;;;;;;;11.60;6.93;;;4.20;99.90;;;;;;5027085;28;20501;-66
2022/01/24 06:02:23;;;;;;;11.23;6.90;;;4.20;99.90;;;;;;5028945;28;20132;-67
2022/01/24 06:04:51;;;;;;;12.30;7.63;;;4.30;99.90;;;;;;5029665;28;20041;-68
2022/01/24 06:07:18;;;;;;;11.15;7.38;;;4.30;99.90;;;;;;5028985;28;20044;-68
2022/01/24 06:09:45;;;;;;;14.23;8.55;;;4.40;99.90;;;;;;5030030;28;20038;-67
2022/01/24 06:12:12;;;;;;;11.10;7.70;;;4.40;99.90;;;;;;5030611;28;20108;-68
2022/01/24 06:14:40;;;;;;;12.60;6.55;;;4.40;99.90;;;;;;5033923;28;20224;-68
2022/01/24 06:17:08;;;;;;;11.50;7.15;;;4.40;99.90;;;;;;5025871;28;20054;-67
2022/01/24 06:19:35;;;;;;;14.65;7.60;;;4.40;99.90;;;;;;5032153;28;20128;-67
2022/01/24 06:22:03;;;;;;;12.82;7.72;;;4.40;99.90;;;;;;5029100;28;20155;-67
2022/01/24 06:24:30;;;;;;;9.27;6.43;;;4.40;99.90;;;;;;5029496;28;20812;-67
2022/01/24 06:27:14;;;;;;;9.07;5.88;;;4.40;99.90;;;;;;5031259;28;20378;-67
2022/01/24 06:29:41;;;;;;;9.45;5.93;;;4.40;99.90;;;;;;5032464;28;20084;-67
2022/01/24 06:32:09;;;;;;;10.07;5.95;;;4.40;99.90;;;;;;5029018;28;20419;-67
2022/01/24 06:34:37;;;;;;;8.82;5.05;;;4.40;99.90;;;;;;5030064;28;20089;-67
2022/01/24 06:37:05;;;;;;;10.13;5.80;;;4.40;99.90;;;;;;5027908;28;20038;-67
2022/01/24 06:39:33;;;;;;;11.73;6.65;;;4.40;99.90;;;;;;5028837;28;20076;-66
2022/01/24 06:42:21;;;;;;;11.88;7.68;;;4.40;99.90;;;;;;5029077;28;20560;-68
2022/01/24 06:44:53;;;;;;;10.73;7.20;;;4.40;99.90;;;;;;5029433;28;20049;-66
2022/01/24 06:47:21;;;;;;;12.52;6.43;;;4.40;99.90;;;;;;5029797;28;20046;-67
2022/01/24 06:49:50;;;;;;;12.95;8.13;;;4.40;99.90;;;;;;5018063;28;20040;-68
2022/01/24 06:52:18;;;;;;;11.70;7.22;;;4.40;99.90;;;;;;5029917;28;20049;-67
2022/01/24 06:54:45;;;;;;;10.38;6.10;;;4.40;99.90;;;;;;5028312;28;20044;-67
2022/01/24 06:57:14;;;;;;;11.70;6.00;;;4.40;99.90;;;;;;5011925;28;20152;-68
2022/01/24 06:59:44;;;;;;;9.30;6.20;;;4.40;99.90;;;;;;5029981;28;20049;-67
2022/01/24 07:02:12;;;;;;;;;;;4.40;99.90;;;;;;5029485;28;20377;-68
2022/01/24 07:04:41;;;;;;;;;;;4.50;99.90;;;;;;5029794;28;20035;-68
2022/01/24 07:07:11;;;;;;;10.70;6.63;;;4.50;99.90;;;;;;5027891;28;20064;-68
2022/01/24 07:09:39;;;;;;;11.02;5.68;;;4.50;99.90;;;;;;5028048;28;20119;-68
2022/01/24 07:12:07;;;;;;;;;;;4.40;99.90;;;;;;5013041;28;20067;-67
2022/01/24 07:14:35;;;;;;;;;;;4.40;99.90;;;;;;5034547;28;20439;-67
2022/01/24 07:19:48;;;;;;;;;;;4.50;99.90;;;;;;5040104;28;20276;-67
2022/01/24 07:22:15;;;;;;;10.40;6.20;;;4.50;99.90;;;;;;5031412;28;20044;-67
2022/01/24 07:24:43;;;;;;;9.35;6.40;;;4.50;99.90;;;;;;5029021;28;19924;-66
2022/01/24 07:27:10;;;;;;;;;;;4.50;99.90;;;;;;5041350;28;20464;-66
2022/01/24 07:29:37;;;;;;;14.80;8.50;;;4.50;99.90;;;;;;5029963;28;25066;-66
2022/01/24 07:32:04;;;;;;;;;;;4.50;99.90;;;;;;5027028;28;19925;-67
2022/01/24 07:34:32;;;;;;;11.80;7.50;;;4.50;99.90;;;;;;5032951;28;19924;-66
2022/01/24 07:36:59;;;;;;;12.65;7.35;;;4.50;99.90;;;;;;5029326;28;20023;-67
2022/01/24 07:39:26;;;;;;;;;;;4.50;99.90;;;;;;5033695;28;20792;-67
2022/01/24 07:41:54;;;;;;;;;;;4.50;99.90;;;;;;5014769;28;24081;-66
2022/01/24 07:44:23;;;;;;;11.30;6.80;;;4.50;99.90;;;;;;5021999;28;19925;-67
2022/01/24 07:46:51;;;;;;;;;;;4.50;99.90;;;;;;5026882;28;19928;-66
2022/01/24 07:49:18;;;;;;;;;;;4.50;99.90;;;;;;5027317;28;19929;-67
2022/01/24 07:51:45;;;;;;;;;;;4.50;99.90;;;;;;5034374;28;19950;-67
2022/01/24 07:54:12;;;;;;;;;;;4.60;99.90;;;;;;5027082;28;20399;-67
2022/01/24 07:56:40;;;;;;;12.70;7.20;;;4.60;99.90;;;;;;5030927;28;19967;-67
2022/01/24 07:59:07;;;;;;;20.13;12.23;;;4.60;99.90;;;;;;5028231;28;20086;-68
2022/01/24 08:01:35;;;;;;;19.10;11.38;;;4.60;99.90;;;;;;5032121;28;20136;-67
2022/01/24 08:04:02;;;;;;;13.60;7.57;;;4.60;99.90;;;;;;5049705;28;20029;-67
2022/01/24 08:06:31;;;;;;;11.18;5.85;;;4.70;99.90;;;;;;5050730;28;20369;-67
2022/01/24 08:08:59;;;;;;;11.55;6.18;;;4.70;99.90;;;;;;5048368;28;20052;-67
2022/01/24 08:11:26;;;;;;;12.75;6.78;;;4.70;99.90;;;;;;5031021;28;20512;-67
2022/01/24 08:13:54;;;;;;;14.57;6.22;;;4.70;99.90;;;;;;5034102;28;20495;-67
2022/01/24 08:16:24;;;;;;;11.50;6.55;;;4.70;99.90;;;;;;5032622;28;20044;-67
2022/01/24 08:18:52;;;;;;;10.15;6.43;;;4.70;99.90;;;;;;5045289;28;20049;-67
2022/01/24 08:21:20;;;;;;;9.40;5.90;;;4.70;99.90;;;;;;5028178;28;20123;-68
2022/01/24 08:23:49;;;;;;;12.13;6.57;;;4.70;99.90;;;;;;5032492;28;20037;-67
2022/01/24 08:26:18;;;;;;;11.27;6.10;;;4.70;99.90;;;;;;5031437;28;20041;-68
2022/01/24 08:28:46;;;;;;;16.42;6.60;;;4.70;99.90;;;;;;5032295;28;20506;-67
2022/01/24 08:31:14;;;;;;;11.45;6.03;;;4.80;99.90;;;;;;5031746;28;20049;-67
2022/01/24 08:33:41;;;;;;;7.95;5.18;;;4.80;99.90;;;;;;5023879;28;20120;-67
2022/01/24 08:36:09;;;;;;;12.18;6.72;;;4.80;99.90;;;;;;5031589;28;20045;-67
2022/01/24 08:38:36;;;;;;;13.57;6.97;;;4.90;99.90;;;;;;5035251;28;20041;-67
2022/01/24 08:41:15;;;;;;;11.93;7.03;;;4.90;99.90;;;;;;5034628;28;20063;-66
2022/01/24 08:46:18;;;;;;;12.68;6.95;;;4.90;99.90;;;;;;5033198;28;20045;-67
2022/01/24 08:48:47;;;;;;;13.98;7.28;;;4.90;99.90;;;;;;5036250;28;20090;-67
2022/01/24 08:51:16;;;;;;;10.77;6.00;;;5.00;99.90;;;;;;5040447;28;20532;-67
2022/01/24 08:54:03;;;;;;;9.23;5.47;;;5.00;99.90;;;;;;5027251;28;20045;-67
2022/01/24 08:56:30;;;;;;;8.50;6.07;;;5.00;99.90;;;;;;5045883;28;20052;-66
2022/01/24 08:58:58;;;;;;;10.17;5.33;;;5.00;99.90;;;;;;5038778;28;20469;-67
2022/01/24 09:01:25;;;;;;;;;;;5.00;99.90;;;;;;4999166;28;20765;-67
2022/01/24 09:03:53;;;;;;;;;;;5.00;99.90;;;;;;5028621;28;20155;-67
2022/01/24 09:06:21;;;;;;;10.03;4.87;;;5.00;99.90;;;;;;5041301;28;19956;-67
2022/01/24 09:08:55;;;;;;;14.50;5.80;;;5.00;99.90;;;;;;5042302;28;20159;-67
2022/01/24 09:11:27;;;;;;;11.07;6.00;;;5.00;99.90;;;;;;5029994;28;20092;-67
2022/01/24 09:13:56;;;;;;;12.95;6.38;;;5.00;99.90;;;;;;5032238;28;20043;-67
2022/01/24 09:16:24;;;;;;;22.63;10.13;;;4.90;99.90;;;;;;5030796;28;20060;-67
2022/01/24 09:18:52;;;;;;;19.45;9.43;;;5.00;99.90;;;;;;5020238;28;20060;-66
2022/01/24 09:21:21;;;;;;;16.08;8.90;;;5.00;99.90;;;;;;5047133;28;20048;-67
2022/01/24 09:23:49;;;;;;;12.73;7.50;;;5.00;99.90;;;;;;5037718;28;20050;-67
2022/01/24 09:26:17;;;;;;;17.17;8.15;;;5.00;99.90;;;;;;5050590;28;20037;-67
2022/01/24 09:28:45;;;;;;;11.07;7.13;;;5.10;99.90;;;;;;5046711;28;20055;-67
2022/01/24 09:31:12;;;;;;;7.75;5.60;;;5.10;99.90;;;;;;5044882;28;20079;-67
2022/01/24 09:33:40;;;;;;;8.80;5.60;;;5.10;99.90;;;;;;5029821;28;20045;-67
2022/01/24 09:36:08;;;;;;;11.95;6.18;;;5.10;99.90;;;;;;5043711;28;20049;-67
2022/01/24 09:38:36;;;;;;;11.50;5.30;;;5.20;99.90;;;;;;5042474;28;20044;-67
2022/01/24 09:41:10;;;;;;;7.97;5.15;;;5.20;99.90;;;;;;5044062;28;20118;-67
2022/01/24 09:43:37;;;;;;;9.05;5.47;;;5.20;99.90;;;;;;5031295;28;20052;-67
2022/01/24 09:46:05;;;;;;;9.30;5.20;;;5.20;99.90;;;;;;5041798;28;20933;-67
2022/01/24 09:48:32;;;;;;;9.52;4.78;;;5.30;99.90;;;;;;5030560;28;20092;-67
2022/01/24 09:51:00;;;;;;;10.55;4.68;;;5.20;99.90;;;;;;5034366;28;20049;-67
2022/01/24 09:53:30;;;;;;;7.45;3.95;;;5.20;99.90;;;;;;5028751;28;20058;-67
2022/01/24 09:56:02;;;;;;;7.75;3.92;;;5.20;99.90;;;;;;5038602;28;20045;-67
2022/01/24 09:58:33;;;;;;;;;;;5.20;99.90;;;;;;5036296;28;20041;-67
2022/01/24 10:01:03;;;;;;;6.55;3.53;;;5.20;99.90;;;;;;5038425;28;19935;-67
2022/01/24 10:03:30;;;;;;;8.40;5.10;;;5.20;99.90;;;;;;5042382;28;20128;-66
2022/01/24 10:06:09;;;;;;;;;;;5.20;99.90;;;;;;5043641;28;20048;-66
2022/01/24 10:08:37;;;;;;;4.78;2.97;;;5.30;99.90;;;;;;5042538;28;19939;-67
2022/01/24 10:11:06;;;;;;;10.73;4.70;;;5.20;99.90;;;;;;5044077;28;20069;-67
2022/01/24 10:16:37;;;;;;;8.50;3.67;;;5.40;99.90;;;;;;5026358;28;20153;-67
2022/01/24 10:19:20;;;;;;;9.57;4.40;;;5.40;99.90;;;;;;5032437;28;20048;-67
2022/01/24 10:22:03;;;;;;;14.00;6.57;;;5.50;99.90;;;;;;5037548;28;20041;-67
2022/01/24 10:24:30;;;;;;;;;;;5.50;99.90;;;;;;5031653;28;20041;-67
2022/01/24 10:27:16;;;;;;;;;;;5.50;99.90;;;;;;5035645;28;19924;-66
2022/01/24 10:29:58;;;;;;;7.18;3.40;;;5.50;99.90;;;;;;5032165;28;19925;-67
2022/01/24 10:32:33;;;;;;;;;;;5.50;99.90;;;;;;5029809;28;19999;-67
2022/01/24 10:35:28;;;;;;;7.10;4.20;;;5.50;99.90;;;;;;5034148;28;20031;-67
2022/01/24 10:41:23;;;;;;;13.07;5.30;;;5.60;99.90;;;;;;5029664;28;20049;-67
2022/01/24 10:43:56;;;;;;;7.07;3.92;;;5.60;99.90;;;;;;5034410;28;20047;-67
2022/01/24 10:46:44;;;;;;;9.27;3.78;;;5.60;99.90;;;;;;5033157;28;20036;-67
2022/01/24 10:49:13;;;;;;;7.95;3.47;;;5.60;99.90;;;;;;5037063;28;20052;-67
2022/01/24 10:51:45;;;;;;;6.33;3.63;;;5.70;99.90;;;;;;5024147;28;20045;-67
2022/01/24 10:54:26;;;;;;;10.00;4.80;;;5.70;99.90;;;;;;5031462;28;20053;-66
2022/01/24 10:56:53;;;;;;;6.97;4.45;;;5.70;99.90;;;;;;5034243;28;20515;-67
2022/01/24 10:59:24;;;;;;;8.98;3.58;;;5.70;99.90;;;;;;5028794;28;20041;-66
2022/01/24 11:01:57;;;;;;;9.80;4.45;;;5.70;99.90;;;;;;5026855;28;20038;-67
2022/01/24 11:04:26;;;;;;;9.40;5.00;;;5.70;99.90;;;;;;5030960;28;20038;-67
2022/01/24 11:06:57;;;;;;;8.10;5.22;;;5.70;99.90;;;;;;5024577;28;20037;-67
2022/01/24 11:09:26;;;;;;;;;;;5.80;99.90;;;;;;5037243;28;20044;-67
2022/01/24 11:11:55;;;;;;;;;;;5.80;99.90;;;;;;5031832;28;19939;-67
2022/01/24 11:14:25;;;;;;;14.13;4.40;;;5.80;99.90;;;;;;5013195;28;25076;-67
2022/01/24 11:16:54;;;;;;;8.38;4.07;;;5.80;99.90;;;;;;5028160;28;20072;-66
2022/01/24 11:22:06;;;;;;;12.15;5.70;;;5.80;99.90;;;;;;5026181;28;20045;-67
2022/01/24 11:24:43;;;;;;;8.80;4.72;;;5.80;99.90;;;;;;5044143;28;20041;-67
2022/01/24 11:27:33;;;;;;;17.25;7.47;;;5.80;99.90;;;;;;5040086;28;20042;-67
2022/01/24 11:30:10;;;;;;;11.63;5.25;;;5.90;99.90;;;;;;5045275;28;20036;-67
2022/01/24 11:33:01;;;;;;;;;;;5.80;99.90;;;;;;5028552;28;20411;-67
2022/01/24 11:35:33;;;;;;;;;;;5.80;99.90;;;;;;5043726;28;20088;-66
2022/01/24 11:38:01;;;;;;;13.10;5.78;;;5.90;99.90;;;;;;5037380;28;24072;-67
2022/01/24 11:40:45;;;;;;;13.55;7.18;;;5.90;99.90;;;;;;5034950;28;20128;-66
2022/01/24 11:43:33;;;;;;;10.23;5.68;;;5.90;99.90;;;;;;5044106;28;19956;-68
2022/01/24 11:46:06;;;;;;;8.50;4.20;;;6.00;99.90;;;;;;4993603;28;1179169;-66
2022/01/24 11:48:36;;;;;;;8.10;4.60;;;6.00;99.90;;;;;;5024807;28;20817;-67
2022/01/24 11:51:11;;;;;;;6.85;3.97;;;6.00;99.90;;;;;;5025943;28;20041;-67
2022/01/24 11:53:45;;;;;;;7.45;4.10;;;6.00;99.90;;;;;;5021131;28;20381;-67
2022/01/24 11:56:32;;;;;;;8.45;4.35;;;6.00;99.90;;;;;;5023431;28;20316;-67
2022/01/24 11:59:18;;;;;;;9.27;4.75;;;6.00;99.90;;;;;;5027592;28;20187;-67
2022/01/24 12:01:52;;;;;;;8.45;4.57;;;6.00;99.90;;;;;;5039380;28;20049;-67
2022/01/24 12:04:47;;;;;;;8.52;4.75;;;6.00;99.90;;;;;;5030436;28;20057;-68
2022/01/24 12:07:17;;;;;;;10.52;5.53;;;6.10;99.90;;;;;;5022445;28;20124;-68
2022/01/24 12:09:44;;;;;;;13.80;6.55;;;6.10;99.90;;;;;;5023680;28;20056;-67
2022/01/24 12:12:38;;;;;;;14.05;7.65;;;6.10;99.90;;;;;;5028432;28;20385;-67
2022/01/24 12:15:11;;;;;;;10.73;6.53;;;6.10;99.90;;;;;;5034420;28;20473;-67
2022/01/24 12:17:48;;;;;;;;;;;6.10;99.90;;;;;;5024725;28;20061;-67
2022/01/24 12:20:30;;;;;;;7.60;3.95;;;6.10;99.90;;;;;;5017636;28;19933;-67
2022/01/24 12:23:16;;;;;;;9.35;4.03;;;6.10;99.90;;;;;;5027141;28;20041;-67
2022/01/24 12:26:13;;;;;;;8.75;4.45;;;6.10;99.90;;;;;;5028254;28;20471;-67
2022/01/24 12:28:48;;;;;;;9.68;5.88;;;6.10;99.90;;;;;;5028956;28;20535;-67
2022/01/24 12:31:16;;;;;;;16.10;8.55;;;6.00;99.90;;;;;;5028566;28;20049;-66
2022/01/24 12:33:53;;;;;;;9.73;4.95;;;6.00;99.90;;;;;;5028590;28;20465;-67
2022/01/24 12:36:46;;;;;;;9.38;4.43;;;6.00;99.90;;;;;;5025610;28;20059;-67
2022/01/24 12:39:20;;;;;;;8.98;4.57;;;6.10;99.90;;;;;;5015439;28;20125;-66
2022/01/24 12:41:54;;;;;;;7.82;4.22;;;6.10;99.90;;;;;;5021030;28;20049;-68
2022/01/24 12:47:12;;;;;;;10.55;4.63;;;6.00;99.90;;;;;;5032353;28;20423;-67
2022/01/24 12:49:42;;;;;;;7.68;4.03;;;5.90;99.90;;;;;;5024019;28;20053;-67
2022/01/24 12:52:18;;;;;;;6.88;4.00;;;5.90;99.90;;;;;;5032302;28;20096;-67
2022/01/24 12:54:48;;;;;;;9.57;4.30;;;5.80;99.90;;;;;;5032519;28;20049;-67
2022/01/24 12:57:19;;;;;;;6.15;4.22;;;5.80;99.90;;;;;;5033739;28;20075;-67
2022/01/24 13:00:03;;;;;;;7.07;4.47;;;5.80;99.90;;;;;;5030865;28;20042;-67
2022/01/24 13:02:32;;;;;;;12.65;5.05;;;5.80;99.90;;;;;;5029872;28;20042;-67
2022/01/24 13:05:23;;;;;;;7.88;4.55;;;5.80;99.90;;;;;;5030816;28;20563;-67
2022/01/24 13:07:57;;;;;;;13.07;5.05;;;5.70;99.90;;;;;;5030467;28;20526;-67
2022/01/24 13:10:27;;;;;;;11.70;5.88;;;5.80;99.90;;;;;;5030333;28;21378;-67
2022/01/24 13:13:11;;;;;;;8.45;5.32;;;5.80;99.90;;;;;;5039713;28;20128;-67
2022/01/24 13:21:16;;;;;;;8.45;4.85;;;5.70;99.90;;;;;;5010617;28;20419;-67
2022/01/24 13:23:57;;;;;;;6.85;4.05;;;5.60;99.90;;;;;;5034665;28;20037;-67
2022/01/24 13:26:25;;;;;;;10.38;5.63;;;5.60;99.90;;;;;;5046552;28;20041;-67
2022/01/24 13:29:05;;;;;;;13.35;5.93;;;5.60;99.90;;;;;;5035275;28;20500;-67
2022/01/24 13:31:33;;;;;;;7.78;5.32;;;5.70;99.90;;;;;;5038372;28;20094;-67
2022/01/24 13:34:08;;;;;;;10.38;5.07;;;5.60;99.90;;;;;;5048711;28;20498;-67
2022/01/24 13:36:35;;;;;;;9.13;5.20;;;5.60;99.90;;;;;;5049868;28;20044;-67
2022/01/24 13:39:02;;;;;;;15.35;5.38;;;5.50;99.90;;;;;;5037954;28;20048;-67
2022/01/24 13:41:30;;;;;;;11.38;5.13;;;5.50;99.90;;;;;;5050824;28;20068;-67
2022/01/24 13:44:04;;;;;;;8.50;4.95;;;5.40;99.90;;;;;;5042450;28;20404;-67
2022/01/24 13:46:37;;;;;;;9.57;4.80;;;5.40;99.90;;;;;;5048533;28;20071;-67
2022/01/24 13:49:13;;;;;;;11.57;5.30;;;5.50;99.90;;;;;;5036338;28;20100;-67
2022/01/24 13:51:48;;;;;;;7.95;4.65;;;5.40;99.90;;;;;;5023629;28;20088;-67
2022/01/24 13:54:28;;;;;;;7.30;4.25;;;5.40;99.90;;;;;;5031616;28;20059;-67
2022/01/24 13:57:02;;;;;;;8.75;5.22;;;5.30;99.90;;;;;;5016546;28;20065;-67
2022/01/24 13:59:31;;;;;;;9.70;5.97;;;5.30;99.90;;;;;;5029317;28;20060;-67
2022/01/24 14:02:04;;;;;;;12.82;6.47;;;5.30;99.90;;;;;;5009734;28;20125;-68
2022/01/24 14:04:32;;;;;;;10.50;6.00;;;5.40;99.90;;;;;;5027783;28;20049;-67
2022/01/24 14:07:11;;;;;;;10.43;5.47;;;5.40;99.90;;;;;;5029638;28;20603;-66
2022/01/24 14:09:43;;;;;;;8.75;5.30;;;5.40;99.90;;;;;;5038839;28;20512;-67
2022/01/24 14:12:14;;;;;;;7.80;4.78;;;5.40;99.90;;;;;;5020278;28;20519;-67
2022/01/24 14:14:58;;;;;;;10.98;5.40;;;5.40;99.90;;;;;;5045189;28;20563;-66
2022/01/24 14:17:37;;;;;;;11.55;5.60;;;5.40;99.90;;;;;;5040067;28;20060;-67
2022/01/24 14:20:10;;;;;;;8.60;4.70;;;5.40;99.90;;;;;;5031958;28;20042;-67
2022/01/24 14:22:40;;;;;;;10.07;6.35;;;5.40;99.90;;;;;;5022342;28;20045;-67
2022/01/24 14:25:18;;;;;;;12.23;6.22;;;5.40;99.90;;;;;;5034647;28;20045;-67
2022/01/24 14:27:51;;;;;;;10.73;5.82;;;5.40;99.90;;;;;;5030488;28;20041;-67
2022/01/24 14:30:34;;;;;;;10.27;5.53;;;5.40;99.90;;;;;;5032268;28;20136;-68
2022/01/24 14:33:11;;;;;;;9.63;5.57;;;5.40;99.90;;;;;;5033991;28;20419;-68
2022/01/24 14:35:39;;;;;;;13.02;6.30;;;5.30;99.90;;;;;;5042582;28;20049;-67
2022/01/24 14:38:08;;;;;;;11.68;6.40;;;5.30;99.90;;;;;;5042234;28;20053;-67
2022/01/24 14:40:45;;;;;;;9.65;6.22;;;5.20;99.90;;;;;;5045773;28;20048;-66
2022/01/24 14:46:08;;;;;;;20.50;11.10;;;5.20;99.90;;;;;;5044807;28;20051;-67
2022/01/24 14:49:02;;;;;;;16.30;8.77;;;5.30;99.90;;;;;;5026772;28;20133;-68
2022/01/24 14:51:32;;;;;;;16.23;6.30;;;5.30;99.90;;;;;;5025086;28;20069;-69
2022/01/24 14:54:02;;;;;;;9.45;5.43;;;5.30;99.90;;;;;;5043438;28;20057;-68
2022/01/24 14:56:30;;;;;;;10.70;5.65;;;5.20;99.90;;;;;;5017336;28;20045;-67
2022/01/24 14:58:59;;;;;;;12.05;6.72;;;5.20;99.90;;;;;;5025842;28;20048;-67
2022/01/24 15:01:28;;;;;;;16.42;7.05;;;5.10;99.90;;;;;;5023522;28;20412;-69
2022/01/24 15:03:56;;;;;;;14.35;7.07;;;5.10;99.90;;;;;;5028855;28;20129;-69
2022/01/24 15:06:24;;;;;;;16.05;6.60;;;5.10;99.90;;;;;;5029436;28;20053;-69
2022/01/24 15:08:55;;;;;;;15.02;6.68;;;5.00;99.90;;;;;;5024169;28;20075;-68
2022/01/24 15:11:25;;;;;;;13.38;6.82;;;5.00;99.90;;;;;;5030338;28;20045;-68
2022/01/24 15:13:56;;;;;;;16.45;5.95;;;4.90;99.90;;;;;;5027723;28;20781;-68
2022/01/24 15:16:40;;;;;;;9.77;5.33;;;4.90;99.90;;;;;;5026897;28;20049;-68
2022/01/24 15:27:08;;;;;;;11.00;5.95;;;4.70;99.90;;;;;;5037977;28;20107;-67
2022/01/24 15:29:35;;;;;;;12.60;6.72;;;4.70;99.90;;;;;;5041177;28;20152;-68
2022/01/24 15:32:04;;;;;;;12.98;5.95;;;4.70;99.90;;;;;;5029956;28;20045;-66
2022/01/24 15:34:33;;;;;;;10.60;5.35;;;4.70;99.90;;;;;;5028550;28;20415;-66
2022/01/24 15:37:02;;;;;;;16.95;6.22;;;4.60;99.90;;;;;;5028640;28;20144;-67
2022/01/24 15:39:31;;;;;;;12.32;6.97;;;4.60;99.90;;;;;;5031411;28;20033;-68
2022/01/24 15:42:04;;;;;;;8.48;5.93;;;4.60;99.90;;;;;;5026567;28;20038;-67
2022/01/24 15:44:46;;;;;;;11.70;6.32;;;4.60;99.90;;;;;;5029123;28;20052;-67
2022/01/24 15:50:05;;;;;;;11.00;6.30;;;4.50;99.90;;;;;;5017633;28;20084;-67
2022/01/24 15:52:33;;;;;;;14.05;6.32;;;4.50;99.90;;;;;;5025222;28;20046;-67
2022/01/24 15:55:06;;;;;;;8.60;5.20;;;4.40;99.90;;;;;;5030432;28;20052;-67